Time;durP1;ratioP1;P1;durP2;ratioP2;P2;SDS_P1;SDS_P2;PMS_P1;PMS_P2;Temp;Humidity;BMP_temperature;BMP_pressure;BME280_temperature;BME280_humidity;BME280_pressure;Samples;Min_cycle;Max_cycle;Signal;HPM_P1;HPM_P2
2022/11/21 00:00:05;;;;;;;39.60;21.93;;;6.10;99.90;;;;;;4157300;28;20038;-69
2022/11/21 00:02:06;;;;;;;39.90;23.02;;;6.00;99.90;;;;;;4157512;28;20667;-69
2022/11/21 00:04:06;;;;;;;35.55;21.70;;;6.10;99.90;;;;;;4128419;28;20029;-69
2022/11/21 00:06:07;;;;;;;32.53;20.40;;;6.00;99.90;;;;;;4156474;28;20034;-69
2022/11/21 00:08:09;;;;;;;32.70;19.10;;;6.00;99.90;;;;;;4154742;28;20100;-68
2022/11/21 00:10:09;;;;;;;30.33;18.48;;;6.00;99.90;;;;;;4156789;28;20025;-69
2022/11/21 00:12:10;;;;;;;37.30;20.83;;;6.00;99.90;;;;;;4156455;28;20044;-69
2022/11/21 00:14:11;;;;;;;34.58;19.77;;;6.00;99.90;;;;;;4155033;28;20029;-69
2022/11/21 00:16:14;;;;;;;36.45;20.27;;;6.00;99.90;;;;;;4146334;28;20029;-69
2022/11/21 00:18:15;;;;;;;32.35;19.10;;;6.00;99.90;;;;;;4158063;28;20052;-69
2022/11/21 00:20:17;;;;;;;35.33;21.17;;;6.00;99.90;;;;;;4140344;28;20109;-69
2022/11/21 00:22:17;;;;;;;30.40;18.98;;;6.00;99.90;;;;;;4162418;28;20077;-69
2022/11/21 00:24:18;;;;;;;29.90;18.38;;;6.00;99.90;;;;;;4152449;28;20352;-69
2022/11/21 00:26:18;;;;;;;29.25;17.55;;;6.10;99.90;;;;;;4160622;28;20580;-69
2022/11/21 00:28:19;;;;;;;28.50;17.73;;;6.10;99.90;;;;;;4144394;28;20034;-69
2022/11/21 00:30:20;;;;;;;28.25;17.55;;;6.10;99.90;;;;;;4157145;28;20522;-69
2022/11/21 00:32:20;;;;;;;29.63;17.70;;;6.10;99.90;;;;;;4161209;28;20544;-69
2022/11/21 00:34:21;;;;;;;31.60;19.88;;;6.10;99.90;;;;;;4154526;28;20049;-69
2022/11/21 00:36:21;;;;;;;34.33;20.55;;;6.20;99.90;;;;;;4153717;28;20049;-69
2022/11/21 00:38:25;;;;;;;28.98;17.95;;;6.10;99.90;;;;;;4153459;28;20514;-69
2022/11/21 00:40:25;;;;;;;32.20;20.25;;;6.20;99.90;;;;;;4153612;28;20424;-69
2022/11/21 00:42:26;;;;;;;28.30;17.42;;;6.20;99.90;;;;;;4156383;28;20132;-69
2022/11/21 00:44:26;;;;;;;33.53;20.45;;;6.20;99.90;;;;;;4159849;28;20076;-70
2022/11/21 00:46:27;;;;;;;27.77;17.70;;;6.30;99.90;;;;;;4147566;28;20191;-69
2022/11/21 00:48:28;;;;;;;29.52;18.45;;;6.30;99.90;;;;;;4154630;28;20043;-69
2022/11/21 00:50:29;;;;;;;29.67;18.08;;;6.30;99.90;;;;;;4153240;28;20037;-69
2022/11/21 00:52:29;;;;;;;29.02;18.98;;;6.30;99.90;;;;;;4159299;28;20621;-69
2022/11/21 00:54:30;;;;;;;28.80;18.48;;;6.30;99.90;;;;;;4158680;28;20033;-69
2022/11/21 00:56:31;;;;;;;30.67;19.27;;;6.30;99.90;;;;;;4154661;28;20109;-69
2022/11/21 00:58:31;;;;;;;30.02;18.65;;;6.30;99.90;;;;;;4157707;28;20087;-68
2022/11/21 01:00:32;;;;;;;26.75;17.52;;;6.30;99.90;;;;;;4152330;28;20030;-69
2022/11/21 01:02:32;;;;;;;30.55;18.85;;;6.30;99.90;;;;;;4146931;28;20034;-69
2022/11/21 01:04:34;;;;;;;33.10;20.13;;;6.40;99.90;;;;;;4157597;28;21575;-69
2022/11/21 01:06:37;;;;;;;29.40;17.65;;;6.40;99.90;;;;;;4157169;28;20095;-69
2022/11/21 01:08:39;;;;;;;33.10;19.58;;;6.40;99.90;;;;;;4151501;28;20509;-69
2022/11/21 01:10:40;;;;;;;29.02;17.85;;;6.40;99.90;;;;;;4154574;28;20235;-68
2022/11/21 01:12:40;;;;;;;34.90;20.58;;;6.40;99.90;;;;;;4158689;28;20049;-68
2022/11/21 01:14:41;;;;;;;35.30;20.73;;;6.40;99.90;;;;;;4157092;28;20033;-69
2022/11/21 01:16:42;;;;;;;39.85;22.85;;;6.40;99.90;;;;;;4157527;28;20067;-69
2022/11/21 01:18:42;;;;;;;34.83;21.25;;;6.40;99.90;;;;;;4158235;28;20067;-69
2022/11/21 01:20:43;;;;;;;34.60;21.33;;;6.40;99.90;;;;;;4157425;28;20064;-69
2022/11/21 01:22:43;;;;;;;39.45;23.38;;;6.40;99.90;;;;;;4154767;28;20560;-69
2022/11/21 01:24:45;;;;;;;40.67;23.48;;;6.40;99.90;;;;;;4159253;28;21239;-69
2022/11/21 01:26:47;;;;;;;33.45;20.45;;;6.40;99.90;;;;;;4156384;28;20041;-69
2022/11/21 01:28:49;;;;;;;36.13;21.88;;;6.40;99.90;;;;;;4156351;28;20057;-69
2022/11/21 01:30:49;;;;;;;34.05;20.23;;;6.40;99.90;;;;;;4155525;28;20493;-70
2022/11/21 01:32:50;;;;;;;34.58;20.98;;;6.40;99.90;;;;;;4158293;28;20037;-69
2022/11/21 01:34:50;;;;;;;39.65;23.38;;;6.40;99.90;;;;;;4148712;28;20042;-69
2022/11/21 01:36:51;;;;;;;38.28;21.90;;;6.40;99.90;;;;;;4145133;28;20034;-69
2022/11/21 01:38:54;;;;;;;35.83;21.35;;;6.40;99.90;;;;;;4145573;28;20026;-69
2022/11/21 01:40:54;;;;;;;37.97;21.90;;;6.40;99.90;;;;;;4131955;28;20454;-69
2022/11/21 01:43:02;;;;;;;39.00;23.38;;;6.40;99.90;;;;;;4146468;28;20041;-69
2022/11/21 01:45:41;;;;;;;37.67;21.90;;;6.40;99.90;;;;;;4145107;28;20122;-69
2022/11/21 01:47:42;;;;;;;35.72;21.48;;;6.40;99.90;;;;;;4146844;28;20034;-69
2022/11/21 01:49:43;;;;;;;36.13;22.10;;;6.40;99.90;;;;;;4127523;28;20041;-69
2022/11/21 01:52:03;;;;;;;33.90;21.10;;;6.40;99.90;;;;;;4145228;28;20510;-70
2022/11/21 01:54:15;;;;;;;33.55;20.05;;;6.40;99.90;;;;;;4145994;28;20533;-69
2022/11/21 01:56:16;;;;;;;35.97;21.80;;;6.40;99.90;;;;;;4148062;28;20088;-69
2022/11/21 01:58:17;;;;;;;37.03;21.27;;;6.40;99.90;;;;;;4147576;28;20398;-70
2022/11/21 02:00:25;;;;;;;33.40;19.98;;;6.40;99.90;;;;;;4143544;28;20133;-69
2022/11/21 02:02:30;;;;;;;32.13;19.45;;;6.40;99.90;;;;;;4137830;28;20099;-68
2022/11/21 02:04:33;;;;;;;31.08;19.50;;;6.40;99.90;;;;;;4146381;28;20507;-70
2022/11/21 02:06:36;;;;;;;;;;;6.40;99.90;;;;;;4149800;28;20050;-69
2022/11/21 02:08:37;;;;;;;32.85;19.83;;;6.40;99.90;;;;;;4144669;28;20367;-69
2022/11/21 02:10:43;;;;;;;38.10;22.35;;;6.40;99.90;;;;;;4144323;28;20041;-69
2022/11/21 02:12:50;;;;;;;35.08;21.27;;;6.40;99.90;;;;;;4129440;28;20579;-70
2022/11/21 02:14:53;;;;;;;37.08;21.67;;;6.40;99.90;;;;;;4144496;28;20034;-69
2022/11/21 02:16:55;;;;;;;;;;;6.40;99.90;;;;;;4137833;28;20080;-70
2022/11/21 02:18:56;;;;;;;35.55;20.95;;;6.40;99.90;;;;;;4133007;28;20292;-69
2022/11/21 02:21:17;;;;;;;34.35;20.58;;;6.40;99.90;;;;;;4144119;28;20041;-69
2022/11/21 02:23:40;;;;;;;31.88;19.77;;;6.40;99.90;;;;;;4148194;28;20547;-69
2022/11/21 02:25:42;;;;;;;33.08;20.38;;;6.40;99.90;;;;;;4144635;28;20029;-70
2022/11/21 02:27:42;;;;;;;38.58;21.80;;;6.40;99.90;;;;;;4150043;28;20070;-69
2022/11/21 02:29:43;;;;;;;39.90;23.20;;;6.40;99.90;;;;;;4146173;28;20045;-69
2022/11/21 02:31:44;;;;;;;35.53;20.67;;;6.40;99.90;;;;;;4145673;28;20030;-69
2022/11/21 02:33:44;;;;;;;33.88;20.00;;;6.40;99.90;;;;;;4140705;28;20030;-69
2022/11/21 02:35:55;;;;;;;35.45;20.92;;;6.40;99.90;;;;;;4158237;28;20096;-70
2022/11/21 02:38:01;;;;;;;33.70;20.70;;;6.40;99.90;;;;;;4143856;28;20109;-69
2022/11/21 02:40:06;;;;;;;35.35;21.77;;;6.40;99.90;;;;;;4157718;28;20036;-70
2022/11/21 02:42:15;;;;;;;34.90;20.92;;;6.40;99.90;;;;;;4160821;28;20372;-70
2022/11/21 02:44:28;;;;;;;32.92;20.48;;;6.40;99.90;;;;;;4154600;28;20088;-69
2022/11/21 02:46:29;;;;;;;;;;;6.40;99.90;;;;;;4149169;28;20038;-70
2022/11/21 02:48:29;;;;;;;31.15;18.02;;;6.40;99.90;;;;;;4155151;28;19908;-69
2022/11/21 02:50:33;;;;;;;37.33;20.92;;;6.40;99.90;;;;;;4145972;28;20030;-69
2022/11/21 02:52:33;;;;;;;34.47;20.30;;;6.40;99.90;;;;;;4156355;28;20033;-70
2022/11/21 02:54:34;;;;;;;39.42;22.52;;;6.40;99.90;;;;;;4154019;28;20495;-70
2022/11/21 02:56:34;;;;;;;39.60;21.60;;;6.40;99.90;;;;;;4150725;28;20034;-69
2022/11/21 02:58:35;;;;;;;38.45;21.73;;;6.40;99.90;;;;;;4148994;28;20510;-70
2022/11/21 03:00:37;;;;;;;40.42;22.45;;;6.50;99.90;;;;;;4150937;28;20045;-70
2022/11/21 03:02:38;;;;;;;43.05;23.25;;;6.50;99.90;;;;;;4163887;28;20466;-70
2022/11/21 03:04:38;;;;;;;44.50;23.60;;;6.50;99.90;;;;;;4162913;28;20029;-69
2022/11/21 03:06:39;;;;;;;41.78;22.08;;;6.50;99.90;;;;;;4153104;28;20466;-70
2022/11/21 03:08:39;;;;;;;42.38;22.48;;;6.50;99.90;;;;;;4157904;28;20083;-70
2022/11/21 03:10:40;;;;;;;46.67;25.08;;;6.50;99.90;;;;;;4150150;28;20510;-69
2022/11/21 03:12:42;;;;;;;50.38;25.23;;;6.50;99.90;;;;;;4140218;28;20046;-70
2022/11/21 03:14:42;;;;;;;49.28;26.17;;;6.50;99.90;;;;;;4157481;28;20061;-69
2022/11/21 03:16:43;;;;;;;50.45;25.90;;;6.50;99.90;;;;;;4156202;28;20091;-69
2022/11/21 03:18:43;;;;;;;57.47;28.67;;;6.50;99.90;;;;;;4159556;28;20075;-69
2022/11/21 03:20:44;;;;;;;46.50;25.30;;;6.50;99.90;;;;;;4142450;28;20030;-70
2022/11/21 03:22:45;;;;;;;54.28;26.05;;;6.50;99.90;;;;;;4156361;28;20471;-70
2022/11/21 03:24:45;;;;;;;52.38;25.17;;;6.40;99.90;;;;;;4157430;28;20371;-70
2022/11/21 03:26:46;;;;;;;55.67;26.17;;;6.40;99.90;;;;;;4155211;28;20449;-70
2022/11/21 03:28:46;;;;;;;47.30;24.25;;;6.50;99.90;;;;;;4159570;28;20041;-70
2022/11/21 03:30:47;;;;;;;54.28;27.00;;;6.50;99.90;;;;;;4152466;28;20041;-70
2022/11/21 03:32:47;;;;;;;53.75;25.88;;;6.50;99.90;;;;;;4149344;28;20390;-70
2022/11/21 03:34:48;;;;;;;52.22;25.38;;;6.40;99.90;;;;;;4144906;28;20504;-70
2022/11/21 03:36:49;;;;;;;48.63;24.42;;;6.40;99.90;;;;;;4156230;28;20386;-70
2022/11/21 03:38:49;;;;;;;48.88;24.65;;;6.50;99.90;;;;;;4163315;28;20062;-70
2022/11/21 03:40:50;;;;;;;50.92;25.17;;;6.50;99.90;;;;;;4154377;28;20045;-69
2022/11/21 03:42:50;;;;;;;49.90;23.33;;;6.40;99.90;;;;;;4164043;28;20113;-70
2022/11/21 03:44:51;;;;;;;49.63;24.98;;;6.40;99.90;;;;;;4152506;28;20109;-70
2022/11/21 03:46:52;;;;;;;52.28;24.23;;;6.50;99.90;;;;;;4146457;28;20426;-70
2022/11/21 03:48:52;;;;;;;47.33;23.92;;;6.40;99.90;;;;;;4149897;28;20649;-70
2022/11/21 03:50:53;;;;;;;44.78;22.95;;;6.50;99.90;;;;;;4146383;28;20041;-70
2022/11/21 03:52:53;;;;;;;47.03;22.98;;;6.40;99.90;;;;;;4160431;28;20033;-70
2022/11/21 03:54:54;;;;;;;52.70;24.23;;;6.40;99.90;;;;;;4165487;28;20095;-70
2022/11/21 03:56:55;;;;;;;54.15;24.27;;;6.30;99.90;;;;;;4157906;28;20033;-70
2022/11/21 03:58:55;;;;;;;44.70;22.60;;;6.40;99.90;;;;;;4164312;28;20041;-70
2022/11/21 04:00:56;;;;;;;46.92;23.15;;;6.40;99.90;;;;;;4151877;28;20486;-66
2022/11/21 04:02:57;;;;;;;47.60;22.52;;;6.40;99.90;;;;;;4146972;28;20034;-66
2022/11/21 04:04:57;;;;;;;45.33;23.63;;;6.40;99.90;;;;;;4149733;28;20028;-67
2022/11/21 04:06:58;;;;;;;45.60;23.48;;;6.40;99.90;;;;;;4157632;28;20045;-67
2022/11/21 04:08:58;;;;;;;50.28;24.15;;;6.40;99.90;;;;;;4157816;28;20087;-66
2022/11/21 04:10:59;;;;;;;48.47;23.50;;;6.40;99.90;;;;;;4150867;28;20038;-66
2022/11/21 04:12:59;;;;;;;42.25;21.15;;;6.40;99.90;;;;;;4159053;28;20033;-67
2022/11/21 04:15:00;;;;;;;40.35;20.58;;;6.40;99.90;;;;;;4139237;28;20117;-67
2022/11/21 04:17:01;;;;;;;44.08;21.27;;;6.40;99.90;;;;;;4159180;28;20068;-66
2022/11/21 04:19:01;;;;;;;43.28;20.73;;;6.40;99.90;;;;;;4156197;28;20048;-66
2022/11/21 04:21:04;;;;;;;44.03;20.30;;;6.40;99.90;;;;;;4151094;28;20030;-67
2022/11/21 04:23:05;;;;;;;43.13;21.60;;;6.30;99.90;;;;;;4158641;28;20041;-67
2022/11/21 04:25:06;;;;;;;42.30;21.58;;;6.40;99.90;;;;;;4163872;28;20042;-67
2022/11/21 04:27:07;;;;;;;42.03;20.77;;;6.30;99.90;;;;;;4158863;28;20068;-66
2022/11/21 04:29:07;;;;;;;46.47;21.95;;;6.40;99.90;;;;;;4146893;28;20038;-67
2022/11/21 04:31:08;;;;;;;45.15;22.48;;;6.30;99.90;;;;;;4154721;28;20087;-66
2022/11/21 04:33:11;;;;;;;46.75;23.23;;;6.30;99.90;;;;;;4149175;28;20490;-66
2022/11/21 04:35:11;;;;;;;45.25;23.15;;;6.40;99.90;;;;;;4151945;28;20046;-67
2022/11/21 04:37:12;;;;;;;44.40;22.35;;;6.30;99.90;;;;;;4155341;28;20033;-67
2022/11/21 04:39:12;;;;;;;52.63;25.15;;;6.30;99.90;;;;;;4150327;28;20281;-66
2022/11/21 04:41:13;;;;;;;48.05;23.17;;;6.30;99.90;;;;;;4141629;28;20042;-66
2022/11/21 04:43:14;;;;;;;45.80;22.77;;;6.30;99.90;;;;;;4145931;28;20049;-67
2022/11/21 04:45:15;;;;;;;43.42;22.02;;;6.40;99.90;;;;;;4150974;28;20030;-66
2022/11/21 04:47:16;;;;;;;44.33;21.92;;;6.30;99.90;;;;;;4139782;28;20041;-66
2022/11/21 04:49:16;;;;;;;44.22;22.70;;;6.30;99.90;;;;;;4139068;28;20046;-66
2022/11/21 04:51:17;;;;;;;44.38;22.15;;;6.30;99.90;;;;;;4153942;28;20080;-66
2022/11/21 04:53:18;;;;;;;48.17;23.80;;;6.30;99.90;;;;;;4156253;28;20037;-66
2022/11/21 04:55:20;;;;;;;46.80;23.75;;;6.40;99.90;;;;;;4155984;28;20037;-66
2022/11/21 04:57:20;;;;;;;43.03;21.83;;;6.30;99.90;;;;;;4161177;28;20037;-66
2022/11/21 04:59:21;;;;;;;43.10;21.15;;;6.40;99.90;;;;;;4146605;28;20512;-66
2022/11/21 05:01:21;;;;;;;42.13;22.02;;;6.40;99.90;;;;;;4152091;28;20096;-66
2022/11/21 05:03:22;;;;;;;43.58;21.90;;;6.40;99.90;;;;;;4143860;28;20065;-66
2022/11/21 05:05:23;;;;;;;40.63;21.48;;;6.40;99.90;;;;;;4157702;28;20045;-67
2022/11/21 05:07:23;;;;;;;38.70;21.15;;;6.40;99.90;;;;;;4151974;28;20383;-66
2022/11/21 05:09:24;;;;;;;36.67;19.65;;;6.40;99.90;;;;;;4151822;28;20124;-66
2022/11/21 05:13:44;;;;;;;37.80;19.83;;;6.40;99.90;;;;;;4160601;28;20101;-66
2022/11/21 05:15:45;;;;;;;36.60;19.52;;;6.40;99.90;;;;;;4162799;28;20501;-66
2022/11/21 05:17:45;;;;;;;35.45;20.17;;;6.40;99.90;;;;;;4148424;28;20026;-66
2022/11/21 05:19:46;;;;;;;35.17;18.27;;;6.40;99.90;;;;;;4149040;28;20087;-66
2022/11/21 05:21:47;;;;;;;36.40;19.77;;;6.40;99.90;;;;;;4153684;28;20060;-67
2022/11/21 05:23:47;;;;;;;36.90;18.88;;;6.40;99.90;;;;;;4140866;28;20461;-66
2022/11/21 05:25:48;;;;;;;37.72;19.60;;;6.40;99.90;;;;;;4147984;28;20441;-67
2022/11/21 05:27:48;;;;;;;38.60;21.25;;;6.40;99.90;;;;;;4156138;28;20034;-66
2022/11/21 05:29:49;;;;;;;43.95;22.05;;;6.40;99.90;;;;;;4152318;28;20044;-67
2022/11/21 05:31:50;;;;;;;41.65;21.60;;;6.50;99.90;;;;;;4153855;28;20032;-66
2022/11/21 05:33:50;;;;;;;38.50;19.42;;;6.50;99.90;;;;;;4154687;28;20116;-66
2022/11/21 05:35:51;;;;;;;39.22;20.92;;;6.50;99.90;;;;;;4149025;28;20046;-66
2022/11/21 05:37:56;;;;;;;37.40;19.92;;;6.40;99.90;;;;;;4161942;28;20113;-67
2022/11/21 05:39:56;;;;;;;42.53;20.23;;;6.40;99.90;;;;;;4148531;28;20130;-66
2022/11/21 05:41:57;;;;;;;42.78;22.02;;;6.40;99.90;;;;;;4148200;28;20420;-66
2022/11/21 05:43:58;;;;;;;41.25;20.80;;;6.40;99.90;;;;;;4149225;28;20532;-66
2022/11/21 05:45:58;;;;;;;40.78;20.67;;;6.40;99.90;;;;;;4153891;28;20042;-66
2022/11/21 05:47:59;;;;;;;42.08;21.42;;;6.40;99.90;;;;;;4140255;28;20053;-66
2022/11/21 05:49:59;;;;;;;43.72;22.13;;;6.40;99.90;;;;;;4156141;28;20029;-68
2022/11/21 05:52:00;;;;;;;38.25;19.63;;;6.40;99.90;;;;;;4151211;28;20108;-67
2022/11/21 05:54:00;;;;;;;41.75;21.58;;;6.40;99.90;;;;;;4145984;28;20081;-66
2022/11/21 05:56:06;;;;;;;38.72;19.70;;;6.40;99.90;;;;;;4146178;28;20066;-66
2022/11/21 05:58:07;;;;;;;47.45;22.73;;;6.40;99.90;;;;;;4135830;28;20049;-67
2022/11/21 06:00:09;;;;;;;40.65;21.15;;;6.40;99.90;;;;;;4144347;28;20032;-66
2022/11/21 06:04:28;;;;;;;49.17;23.92;;;6.40;99.90;;;;;;4139421;28;20041;-66
2022/11/21 06:06:29;;;;;;;43.92;22.52;;;6.40;99.90;;;;;;4154806;28;20502;-66
2022/11/21 06:08:32;;;;;;;45.33;22.52;;;6.40;99.90;;;;;;4155309;28;20109;-66
2022/11/21 06:10:33;;;;;;;47.25;23.05;;;6.40;99.90;;;;;;4149096;28;20111;-66
2022/11/21 06:12:34;;;;;;;45.80;22.85;;;6.30;99.90;;;;;;4144887;28;20038;-66
2022/11/21 06:14:34;;;;;;;44.05;23.05;;;6.40;99.90;;;;;;4150125;28;20701;-66
2022/11/21 06:16:35;;;;;;;48.65;22.85;;;6.30;99.90;;;;;;4153808;28;20367;-67
2022/11/21 06:18:37;;;;;;;46.75;21.90;;;6.30;99.90;;;;;;4147914;28;20535;-67
2022/11/21 06:20:38;;;;;;;;;;;6.30;99.90;;;;;;4138708;28;20529;-67
2022/11/21 06:22:38;;;;;;;47.05;22.98;;;6.30;99.90;;;;;;4153298;28;20027;-66
2022/11/21 06:24:39;;;;;;;48.83;23.35;;;6.20;99.90;;;;;;4158882;28;20124;-66
2022/11/21 06:26:39;;;;;;;48.15;21.83;;;6.30;99.90;;;;;;4151015;28;20038;-65
2022/11/21 06:28:41;;;;;;;41.30;20.85;;;6.20;99.90;;;;;;4150617;28;20062;-66
2022/11/21 06:30:42;;;;;;;51.40;25.30;;;6.30;99.90;;;;;;4145751;28;20033;-66
2022/11/21 06:32:43;;;;;;;47.63;24.55;;;6.30;99.90;;;;;;4150075;28;20054;-66
2022/11/21 06:34:43;;;;;;;45.70;23.52;;;6.30;99.90;;;;;;4135183;28;20057;-66
2022/11/21 06:36:45;;;;;;;44.53;23.08;;;6.30;99.90;;;;;;4156499;28;20053;-66
2022/11/21 06:38:46;;;;;;;48.45;24.35;;;6.30;99.90;;;;;;4150009;28;20068;-66
2022/11/21 06:40:46;;;;;;;44.72;24.02;;;6.30;99.90;;;;;;4138288;28;20501;-66
2022/11/21 06:42:47;;;;;;;42.63;22.52;;;6.30;99.90;;;;;;4143915;28;20037;-66
2022/11/21 06:44:47;;;;;;;49.67;24.98;;;6.30;99.90;;;;;;4143651;28;20061;-66
2022/11/21 06:46:48;;;;;;;57.58;27.25;;;6.30;99.90;;;;;;4147385;28;20033;-66
2022/11/21 06:48:49;;;;;;;46.17;22.55;;;6.20;99.90;;;;;;4152318;28;20498;-66
2022/11/21 06:50:50;;;;;;;47.17;23.05;;;6.20;99.90;;;;;;4146193;28;20088;-66
2022/11/21 06:52:50;;;;;;;43.65;21.83;;;6.10;99.90;;;;;;4137236;28;20084;-66
2022/11/21 06:54:51;;;;;;;49.28;23.25;;;6.20;99.90;;;;;;4146049;28;20045;-66
2022/11/21 06:56:54;;;;;;;43.25;22.40;;;6.10;99.90;;;;;;4157451;28;21409;-66
2022/11/21 06:58:55;;;;;;;;;;;6.10;99.90;;;;;;4151989;28;20069;-67
2022/11/21 07:00:55;;;;;;;41.00;21.45;;;6.20;99.90;;;;;;4158574;28;20224;-66
2022/11/21 07:03:01;;;;;;;40.58;19.90;;;6.20;99.90;;;;;;4145996;28;20097;-66
2022/11/21 07:05:01;;;;;;;47.15;23.42;;;6.20;99.90;;;;;;4149042;28;20053;-66
2022/11/21 07:07:02;;;;;;;46.45;23.08;;;6.20;99.90;;;;;;4152848;28;20525;-67
2022/11/21 07:09:03;;;;;;;43.67;21.70;;;6.20;99.90;;;;;;4148898;28;20601;-65
2022/11/21 07:11:06;;;;;;;43.80;21.08;;;6.20;99.90;;;;;;4142086;28;20041;-66
2022/11/21 07:13:22;;;;;;;45.78;22.60;;;6.20;99.90;;;;;;4155031;28;20060;-66
2022/11/21 07:15:22;;;;;;;42.70;21.08;;;6.20;99.90;;;;;;4159638;28;20033;-66
2022/11/21 07:17:23;;;;;;;48.08;21.90;;;6.20;99.90;;;;;;4166002;28;20060;-66
2022/11/21 07:19:23;;;;;;;43.75;22.27;;;6.30;99.90;;;;;;4159371;28;20095;-66
2022/11/21 07:21:24;;;;;;;43.97;21.30;;;6.30;99.90;;;;;;4160718;28;20029;-67
2022/11/21 07:23:25;;;;;;;49.92;23.38;;;6.30;99.90;;;;;;4159436;28;20140;-66
2022/11/21 07:25:26;;;;;;;50.65;24.10;;;6.30;99.90;;;;;;4159541;28;20042;-67
2022/11/21 07:27:27;;;;;;;51.55;24.92;;;6.30;99.90;;;;;;4162666;28;20425;-66
2022/11/21 07:29:27;;;;;;;48.70;23.00;;;6.30;99.90;;;;;;4158445;28;20029;-66
2022/11/21 07:31:28;;;;;;;49.83;23.50;;;6.30;99.90;;;;;;4161121;28;20026;-65
2022/11/21 07:33:29;;;;;;;56.60;23.50;;;6.30;99.90;;;;;;4161143;28;20038;-66
2022/11/21 07:35:30;;;;;;;56.33;23.52;;;6.30;99.90;;;;;;4156246;28;20058;-65
2022/11/21 07:37:31;;;;;;;51.00;22.55;;;6.30;99.90;;;;;;4160998;28;20112;-65
2022/11/21 07:39:31;;;;;;;49.05;22.77;;;6.30;99.90;;;;;;4162298;28;21203;-68
2022/11/21 07:41:32;;;;;;;50.20;23.98;;;6.30;99.90;;;;;;4158274;28;20038;-66
2022/11/21 07:43:32;;;;;;;52.63;25.25;;;6.30;99.90;;;;;;4157497;28;20049;-65
2022/11/21 07:45:33;;;;;;;66.28;27.45;;;6.30;99.90;;;;;;4148746;28;20045;-66
2022/11/21 07:47:34;;;;;;;59.88;26.73;;;6.30;99.90;;;;;;4157934;28;20091;-65
2022/11/21 07:49:34;;;;;;;54.97;24.48;;;6.30;99.90;;;;;;4158697;28;20036;-65
2022/11/21 07:51:35;;;;;;;52.67;23.55;;;6.30;99.90;;;;;;4152551;28;20401;-65
2022/11/21 07:53:35;;;;;;;60.70;25.00;;;6.30;99.90;;;;;;4162682;28;20044;-68
2022/11/21 07:55:36;;;;;;;53.35;23.25;;;6.30;99.90;;;;;;4154941;28;20029;-65
2022/11/21 07:57:37;;;;;;;51.45;23.52;;;6.30;99.90;;;;;;4162063;28;20824;-66
2022/11/21 07:59:37;;;;;;;69.78;28.20;;;6.30;99.90;;;;;;4153223;28;20087;-66
2022/11/21 08:01:38;;;;;;;67.93;28.17;;;6.30;99.90;;;;;;4164236;28;20112;-65
2022/11/21 08:03:38;;;;;;;52.42;24.27;;;6.30;99.90;;;;;;4161942;28;20117;-65
2022/11/21 08:05:43;;;;;;;46.42;22.40;;;6.30;99.90;;;;;;4153983;28;20026;-66
2022/11/21 08:07:43;;;;;;;42.28;20.17;;;6.30;99.90;;;;;;4152756;28;20049;-65
2022/11/21 08:09:44;;;;;;;48.17;21.92;;;6.30;99.90;;;;;;4149388;28;20033;-65
2022/11/21 08:11:44;;;;;;;53.55;25.00;;;6.40;99.90;;;;;;4151608;28;20045;-65
2022/11/21 08:13:45;;;;;;;60.88;25.55;;;6.30;99.90;;;;;;4152439;28;20029;-66
2022/11/21 08:15:46;;;;;;;56.42;24.50;;;6.30;99.90;;;;;;4143172;28;20026;-66
2022/11/21 08:17:46;;;;;;;58.35;25.15;;;6.30;99.90;;;;;;4141175;28;20038;-66
2022/11/21 08:19:47;;;;;;;50.83;23.90;;;6.30;99.90;;;;;;4150109;28;20112;-65
2022/11/21 08:21:47;;;;;;;56.60;23.45;;;6.30;99.90;;;;;;4144998;28;20040;-66
2022/11/21 08:23:48;;;;;;;53.50;25.48;;;6.30;99.90;;;;;;4137240;28;20025;-65
2022/11/21 08:25:50;;;;;;;59.25;24.80;;;6.30;99.90;;;;;;4156004;28;20124;-66
2022/11/21 08:27:54;;;;;;;53.47;24.70;;;6.30;99.90;;;;;;4150462;28;20061;-66
2022/11/21 08:29:55;;;;;;;54.05;24.70;;;6.30;99.90;;;;;;4142969;28;20030;-66
2022/11/21 08:31:55;;;;;;;54.30;25.00;;;6.40;99.90;;;;;;4153400;28;20048;-66
2022/11/21 08:33:56;;;;;;;55.65;25.00;;;6.40;99.90;;;;;;4149478;28;20479;-65
2022/11/21 08:35:56;;;;;;;56.35;24.08;;;6.40;99.90;;;;;;4149534;28;20092;-67
2022/11/21 08:37:58;;;;;;;56.13;26.20;;;6.50;99.90;;;;;;4150990;28;20474;-66
2022/11/21 08:39:59;;;;;;;55.10;24.65;;;6.50;99.90;;;;;;4149783;28;20055;-65
2022/11/21 08:42:03;;;;;;;62.83;26.20;;;6.50;99.90;;;;;;4157387;28;20029;-65
2022/11/21 08:44:05;;;;;;;55.78;26.30;;;6.50;99.90;;;;;;4153841;28;20025;-66
2022/11/21 08:46:05;;;;;;;57.10;25.27;;;6.50;99.90;;;;;;4141787;28;20042;-65
2022/11/21 08:48:10;;;;;;;48.80;23.17;;;6.50;99.90;;;;;;4145501;28;20542;-65
2022/11/21 08:50:11;;;;;;;60.22;25.08;;;6.50;99.90;;;;;;4145527;28;20022;-66
2022/11/21 08:52:13;;;;;;;51.63;22.70;;;6.50;99.90;;;;;;4153889;28;20022;-66
2022/11/21 08:54:14;;;;;;;50.72;23.77;;;6.50;99.90;;;;;;4155845;28;20041;-65
2022/11/21 08:56:15;;;;;;;47.28;21.45;;;6.60;99.90;;;;;;4141589;28;20037;-66
2022/11/21 08:58:16;;;;;;;42.65;21.40;;;6.60;99.90;;;;;;4149145;28;20026;-70
2022/11/21 09:00:16;;;;;;;48.15;21.42;;;6.60;99.90;;;;;;4144643;28;20033;-66
2022/11/21 09:02:17;;;;;;;40.65;20.65;;;6.60;99.90;;;;;;4135236;28;20104;-65
2022/11/21 09:04:18;;;;;;;48.10;22.40;;;6.60;99.90;;;;;;4148754;28;20533;-66
2022/11/21 09:06:18;;;;;;;47.22;22.50;;;6.70;99.90;;;;;;4152859;28;20418;-67
2022/11/21 09:08:19;;;;;;;46.10;22.73;;;6.70;99.90;;;;;;4158725;28;20450;-66
2022/11/21 09:10:19;;;;;;;43.67;21.20;;;6.70;99.90;;;;;;4147456;28;20423;-65
2022/11/21 09:12:20;;;;;;;44.03;22.63;;;6.80;99.90;;;;;;4149319;28;20052;-66
2022/11/21 09:18:59;;;;;;;43.30;21.55;;;6.80;99.90;;;;;;4148174;28;20045;-65
2022/11/21 09:21:00;;;;;;;45.55;21.35;;;6.90;99.90;;;;;;4149604;28;20474;-66
2022/11/21 09:23:08;;;;;;;42.90;20.23;;;6.90;99.90;;;;;;4154689;28;20103;-66
2022/11/21 09:25:09;;;;;;;43.58;21.00;;;6.90;99.90;;;;;;4147388;28;20465;-66
2022/11/21 09:27:09;;;;;;;40.13;19.13;;;7.00;99.90;;;;;;4137918;28;20159;-65
2022/11/21 09:29:10;;;;;;;38.10;17.73;;;6.90;99.90;;;;;;4155491;28;20040;-66
2022/11/21 09:31:11;;;;;;;36.25;17.98;;;7.00;99.90;;;;;;4151088;28;20053;-65
2022/11/21 09:33:14;;;;;;;36.08;17.00;;;7.00;99.90;;;;;;4157960;28;20116;-68
2022/11/21 09:35:14;;;;;;;32.10;15.27;;;7.10;99.90;;;;;;4159274;28;20240;-66
2022/11/21 09:37:15;;;;;;;27.35;14.60;;;7.10;99.90;;;;;;4165096;28;20498;-65
2022/11/21 09:39:16;;;;;;;25.80;13.93;;;7.10;99.90;;;;;;4164234;28;20034;-65
2022/11/21 09:44:07;;;;;;;21.35;11.35;;;7.20;99.90;;;;;;4158312;28;20391;-67
2022/11/21 09:46:15;;;;;;;18.77;9.85;;;7.20;99.90;;;;;;4146769;28;20029;-65
2022/11/21 09:48:45;;;;;;;17.40;9.65;;;7.30;99.90;;;;;;4132678;28;20125;-65
2022/11/21 09:50:49;;;;;;;15.02;8.80;;;7.30;99.90;;;;;;4148166;28;20026;-65
2022/11/21 09:52:58;;;;;;;12.82;7.90;;;7.40;99.90;;;;;;4147950;28;20037;-65
2022/11/21 09:55:05;;;;;;;13.27;7.75;;;7.50;99.90;;;;;;4135717;28;20368;-66
2022/11/21 09:57:05;;;;;;;11.07;7.75;;;7.60;99.90;;;;;;4145400;28;20022;-65
2022/11/21 09:59:30;;;;;;;10.90;7.07;;;7.70;99.90;;;;;;4149588;28;20069;-66
2022/11/21 10:01:31;;;;;;;10.80;7.32;;;7.80;99.90;;;;;;4160491;28;20537;-66
2022/11/21 10:03:38;;;;;;;8.38;6.75;;;7.90;99.90;;;;;;4162094;28;20037;-66
2022/11/21 10:06:00;;;;;;;9.65;6.75;;;8.00;99.90;;;;;;4165595;28;20538;-66
2022/11/21 10:08:26;;;;;;;11.20;7.43;;;8.00;99.90;;;;;;4163780;28;20030;-67
2022/11/21 10:11:10;;;;;;;10.77;6.32;;;8.10;99.90;;;;;;4152267;28;20092;-66
2022/11/21 10:13:32;;;;;;;9.93;6.13;;;8.20;99.90;;;;;;4159909;28;20044;-65
2022/11/21 10:16:00;;;;;;;10.70;6.65;;;8.20;99.90;;;;;;4161934;28;20038;-70
2022/11/21 10:18:33;;;;;;;13.45;7.55;;;8.20;99.90;;;;;;4154882;28;20034;-66
2022/11/21 10:20:48;;;;;;;14.63;6.90;;;8.30;99.90;;;;;;4162535;28;20033;-68
2022/11/21 10:23:01;;;;;;;10.43;6.57;;;8.20;99.90;;;;;;4165840;28;20037;-66
2022/11/21 10:25:27;;;;;;;14.68;7.38;;;8.20;99.90;;;;;;4156071;28;20033;-66
2022/11/21 10:27:36;;;;;;;9.70;6.00;;;8.20;99.90;;;;;;4161615;28;20061;-66
2022/11/21 10:29:52;;;;;;;9.60;5.97;;;8.20;99.90;;;;;;4165522;28;20038;-65
2022/11/21 10:32:00;;;;;;;10.25;6.47;;;8.20;99.90;;;;;;4164778;28;20033;-66
2022/11/21 10:34:02;;;;;;;12.30;5.93;;;8.30;99.90;;;;;;4155089;28;20049;-67
2022/11/21 10:36:32;;;;;;;13.30;5.50;;;8.30;99.90;;;;;;4163393;28;20052;-68
2022/11/21 10:38:37;;;;;;;11.15;6.07;;;8.30;99.90;;;;;;4159557;28;20509;-66
2022/11/21 10:40:44;;;;;;;8.57;5.13;;;8.30;99.90;;;;;;4156751;28;20120;-69
2022/11/21 10:45:32;;;;;;;8.60;4.95;;;8.30;99.90;;;;;;4141776;28;20032;-66
2022/11/21 10:47:36;;;;;;;10.52;5.82;;;8.30;99.90;;;;;;4160435;28;20109;-68